Southern Utah University
, Cedar City
Last Weather Update:03/29/2012 11:00:00 AM
Date
ETo
ETc
Rain
Irrigation
Req
Temp
Max
Temp
Min
Temp
Avg
Avg RH
Avg Wind
Avg Solar
inches
inches
incehs
inches
F
F
F
%
%
watts/m2
02/01/2012 0.07" 0.00" 0.00" 0.00" 52.4° 29.5° 40.1° 42.3% 4.4 MPH 104.4w/m2
02/02/2012 0.02" 0.00" 0.08" -0.06" 35.3° 27.9° 30.3° 89.3% 5.2 MPH 50.0w/m2
02/03/2012 0.04" 0.00" 0.15" -0.12" 37.3° 22.5° 29.7° 78.5% 3.2 MPH 102.7w/m2
02/04/2012 0.06" 0.00" 0.00" 0.00" 42.8° 17.4° 28.1° 71.4% 2.3 MPH 156.3w/m2
02/05/2012 0.05" 0.00" 0.00" 0.00" 43.5° 18.6° 28.8° 68.0% 2.1 MPH 151.8w/m2
02/06/2012 0.06" 0.00" 0.00" 0.00" 41.7° 17.2° 28.7° 61.5% 3.1 MPH 168.3w/m2
02/07/2012 0.06" 0.00" 0.00" 0.00" 47.6° 18.0° 31.7° 51.2% 2.8 MPH 144.0w/m2
02/08/2012 0.06" 0.00" 0.00" 0.00" 54.2° 29.4° 39.7° 48.7% 2.1 MPH 124.6w/m2
02/09/2012 0.07" 0.00" 0.00" 0.00" 50.9° 25.1° 36.0° 67.4% 2.9 MPH 165.4w/m2
02/10/2012 0.09" 0.00" 0.00" 0.00" 59.3° 29.4° 42.6° 53.7% 3.0 MPH 174.6w/m2
02/11/2012 0.10" 0.00" 0.01" -0.01" 55.5° 35.7° 45.5° 44.5% 4.7 MPH 148.4w/m2
02/12/2012 0.02" 0.00" 0.24" -0.19" 41.6° 25.7° 34.6° 90.6% 1.4 MPH 47.6w/m2
02/13/2012 0.03" 0.00" 0.24" -0.19" 40.4° 24.6° 32.2° 88.8% 2.1 MPH 73.5w/m2
02/14/2012 0.03" 0.00" 0.15" -0.12" 38.6° 18.8° 28.7° 83.8% 1.7 MPH 86.1w/m2
02/15/2012 0.04" 0.00" 0.00" 0.00" 39.5° 23.7° 30.1° 86.5% 1.9 MPH 95.6w/m2
02/16/2012 0.06" 0.00" 0.06" -0.05" 41.8° 19.8° 29.9° 82.0% 3.8 MPH 156.6w/m2
02/17/2012 0.07" 0.00" 0.00" 0.00" 44.4° 20.0° 30.5° 66.7% 2.4 MPH 190.1w/m2
02/18/2012 0.08" 0.00" 0.00" 0.00" 46.4° 21.1° 35.4° 54.2% 4.9 MPH 173.3w/m2
02/19/2012 0.03" 0.00" 0.30" -0.24" 40.5° 14.8° 27.8° 83.4% 3.5 MPH 120.8w/m2
02/20/2012 0.07" 0.00" 0.00" 0.00" 48.6° 10.2° 26.1° 61.2% 2.7 MPH 202.6w/m2
02/21/2012 0.08" 0.00" 0.00" 0.00" 48.1° 22.7° 34.8° 55.2% 2.4 MPH 183.2w/m2
02/22/2012 0.08" 0.00" 0.00" 0.00" 57.4° 30.4° 42.7° 55.4% 2.4 MPH 156.2w/m2
02/23/2012 0.07" 0.00" 0.00" 0.00" 45.2° 24.7° 35.8° 53.0% 6.0 MPH 160.8w/m2
02/24/2012 0.08" 0.00" 0.00" 0.00" 50.9° 20.5° 33.8° 50.6% 1.7 MPH 206.0w/m2
02/25/2012 0.13" 0.00" 0.00" 0.00" 54.3° 26.3° 42.1° 29.7% 5.8 MPH 211.1w/m2
02/26/2012 0.08" 0.00" 0.00" 0.00" 44.3° 22.4° 31.6° 43.2% 2.8 MPH 201.1w/m2
02/27/2012 0.09" 0.00" 0.00" 0.00" 48.6° 33.7° 40.3° 40.7% 7.0 MPH 143.5w/m2
02/28/2012 0.04" 0.00" 0.06" -0.05" 36.4° 26.9° 32.2° 79.6% 5.1 MPH 103.8w/m2
02/29/2012 0.09" 0.00" 0.00" 0.00" 45.3° 24.2° 35.7° 53.9% 7.6 MPH 175.9w/m2
Totals: 1.87" 0.00" 1.29" -1.03" 59.3° 10.2° 34.0° 63.3% 3.5 MPH 144.1w/m2